sensor_id;sensor_type;location;lat;lon;timestamp;P1;durP1;ratioP1;P2;durP2;ratioP2
22606;SDS011;11470;20.968;105.834;2022-10-16T00:00:22;64.82;;;38.55;;
22606;SDS011;11470;20.968;105.834;2022-10-16T00:05:27;58.03;;;36.63;;
22606;SDS011;11470;20.968;105.834;2022-10-16T00:10:33;66.33;;;37.57;;
22606;SDS011;11470;20.968;105.834;2022-10-16T00:15:38;45.50;;;27.00;;
22606;SDS011;11470;20.968;105.834;2022-10-16T00:20:46;69.15;;;41.85;;
22606;SDS011;11470;20.968;105.834;2022-10-16T00:25:55;56.38;;;35.50;;
22606;SDS011;11470;20.968;105.834;2022-10-16T00:31:05;73.53;;;45.97;;
22606;SDS011;11470;20.968;105.834;2022-10-16T00:36:12;63.85;;;38.92;;
22606;SDS011;11470;20.968;105.834;2022-10-16T00:41:18;64.47;;;41.55;;
22606;SDS011;11470;20.968;105.834;2022-10-16T00:51:32;69.00;;;43.57;;
22606;SDS011;11470;20.968;105.834;2022-10-16T00:56:38;62.78;;;36.03;;
22606;SDS011;11470;20.968;105.834;2022-10-16T01:01:44;65.95;;;44.90;;
22606;SDS011;11470;20.968;105.834;2022-10-16T01:12:12;75.38;;;46.47;;
22606;SDS011;11470;20.968;105.834;2022-10-16T01:17:28;62.35;;;39.90;;
22606;SDS011;11470;20.968;105.834;2022-10-16T01:22:44;62.47;;;38.42;;
22606;SDS011;11470;20.968;105.834;2022-10-16T01:27:53;41.15;;;22.85;;
22606;SDS011;11470;20.968;105.834;2022-10-16T01:33:02;41.70;;;20.20;;
22606;SDS011;11470;20.968;105.834;2022-10-16T01:43:22;47.20;;;26.90;;
22606;SDS011;11470;20.968;105.834;2022-10-16T01:48:27;52.30;;;34.42;;
22606;SDS011;11470;20.968;105.834;2022-10-16T01:53:34;48.42;;;32.42;;
22606;SDS011;11470;20.968;105.834;2022-10-16T01:58:51;40.10;;;20.83;;
22606;SDS011;11470;20.968;105.834;2022-10-16T02:03:58;47.80;;;28.80;;
22606;SDS011;11470;20.968;105.834;2022-10-16T02:09:07;35.08;;;22.67;;
22606;SDS011;11470;20.968;105.834;2022-10-16T02:14:12;49.83;;;31.42;;
22606;SDS011;11470;20.968;105.834;2022-10-16T02:19:18;36.50;;;20.27;;
22606;SDS011;11470;20.968;105.834;2022-10-16T02:29:37;48.03;;;25.95;;
22606;SDS011;11470;20.968;105.834;2022-10-16T02:34:44;39.03;;;20.48;;
22606;SDS011;11470;20.968;105.834;2022-10-16T02:44:55;36.70;;;19.48;;
22606;SDS011;11470;20.968;105.834;2022-10-16T02:50:00;44.37;;;24.57;;
22606;SDS011;11470;20.968;105.834;2022-10-16T02:55:05;46.25;;;29.08;;
22606;SDS011;11470;20.968;105.834;2022-10-16T03:00:12;36.43;;;20.73;;
22606;SDS011;11470;20.968;105.834;2022-10-16T03:05:18;46.38;;;27.13;;
22606;SDS011;11470;20.968;105.834;2022-10-16T03:10:28;31.65;;;19.40;;
22606;SDS011;11470;20.968;105.834;2022-10-16T03:15:43;29.70;;;16.53;;
22606;SDS011;11470;20.968;105.834;2022-10-16T03:20:48;40.45;;;20.73;;
22606;SDS011;11470;20.968;105.834;2022-10-16T03:25:56;34.80;;;18.25;;
22606;SDS011;11470;20.968;105.834;2022-10-16T03:31:01;37.75;;;19.02;;
22606;SDS011;11470;20.968;105.834;2022-10-16T03:36:07;25.85;;;15.13;;
22606;SDS011;11470;20.968;105.834;2022-10-16T03:41:12;30.03;;;15.57;;
22606;SDS011;11470;20.968;105.834;2022-10-16T03:46:17;25.73;;;14.07;;
22606;SDS011;11470;20.968;105.834;2022-10-16T03:51:22;32.47;;;17.80;;
22606;SDS011;11470;20.968;105.834;2022-10-16T03:56:29;28.02;;;13.95;;
22606;SDS011;11470;20.968;105.834;2022-10-16T04:01:34;23.30;;;14.45;;
22606;SDS011;11470;20.968;105.834;2022-10-16T04:06:39;27.00;;;15.63;;
22606;SDS011;11470;20.968;105.834;2022-10-16T04:11:44;23.93;;;15.23;;
22606;SDS011;11470;20.968;105.834;2022-10-16T04:16:50;20.92;;;11.63;;
22606;SDS011;11470;20.968;105.834;2022-10-16T04:21:55;17.17;;;10.27;;
22606;SDS011;11470;20.968;105.834;2022-10-16T04:27:01;22.38;;;14.05;;
22606;SDS011;11470;20.968;105.834;2022-10-16T04:37:11;28.02;;;15.25;;
22606;SDS011;11470;20.968;105.834;2022-10-16T04:42:19;20.23;;;11.05;;
22606;SDS011;11470;20.968;105.834;2022-10-16T04:47:25;20.23;;;12.73;;
22606;SDS011;11470;20.968;105.834;2022-10-16T04:57:40;19.92;;;12.30;;
22606;SDS011;11470;20.968;105.834;2022-10-16T05:02:45;17.02;;;11.23;;
22606;SDS011;11470;20.968;105.834;2022-10-16T05:07:51;22.50;;;9.90;;
22606;SDS011;11470;20.968;105.834;2022-10-16T05:12:56;16.63;;;11.33;;
22606;SDS011;11470;20.968;105.834;2022-10-16T05:18:01;20.10;;;14.23;;
22606;SDS011;11470;20.968;105.834;2022-10-16T05:23:06;17.10;;;9.27;;
22606;SDS011;11470;20.968;105.834;2022-10-16T05:33:40;14.32;;;8.65;;
22606;SDS011;11470;20.968;105.834;2022-10-16T05:38:50;27.10;;;11.27;;
22606;SDS011;11470;20.968;105.834;2022-10-16T05:43:58;15.18;;;9.18;;
22606;SDS011;11470;20.968;105.834;2022-10-16T05:49:04;17.63;;;8.30;;
22606;SDS011;11470;20.968;105.834;2022-10-16T05:54:12;16.65;;;9.68;;
22606;SDS011;11470;20.968;105.834;2022-10-16T05:59:22;13.70;;;6.72;;
22606;SDS011;11470;20.968;105.834;2022-10-16T06:04:27;14.70;;;9.18;;
22606;SDS011;11470;20.968;105.834;2022-10-16T06:09:33;21.52;;;13.50;;
22606;SDS011;11470;20.968;105.834;2022-10-16T06:14:46;11.02;;;7.60;;
22606;SDS011;11470;20.968;105.834;2022-10-16T06:19:55;16.20;;;9.27;;
22606;SDS011;11470;20.968;105.834;2022-10-16T06:25:00;14.23;;;9.43;;
22606;SDS011;11470;20.968;105.834;2022-10-16T06:30:07;14.40;;;9.23;;
22606;SDS011;11470;20.968;105.834;2022-10-16T06:40:19;16.20;;;11.00;;
22606;SDS011;11470;20.968;105.834;2022-10-16T06:45:24;18.65;;;10.90;;
22606;SDS011;11470;20.968;105.834;2022-10-16T06:50:31;13.80;;;9.63;;
22606;SDS011;11470;20.968;105.834;2022-10-16T06:55:36;13.38;;;8.38;;
22606;SDS011;11470;20.968;105.834;2022-10-16T07:00:42;10.57;;;6.90;;
22606;SDS011;11470;20.968;105.834;2022-10-16T07:05:48;16.77;;;11.18;;
22606;SDS011;11470;20.968;105.834;2022-10-16T07:10:59;11.07;;;6.70;;
22606;SDS011;11470;20.968;105.834;2022-10-16T07:16:05;20.67;;;11.82;;
22606;SDS011;11470;20.968;105.834;2022-10-16T07:21:20;10.65;;;8.13;;
22606;SDS011;11470;20.968;105.834;2022-10-16T07:26:27;14.88;;;8.63;;
22606;SDS011;11470;20.968;105.834;2022-10-16T07:31:34;14.00;;;10.32;;
22606;SDS011;11470;20.968;105.834;2022-10-16T07:36:40;15.50;;;9.95;;
22606;SDS011;11470;20.968;105.834;2022-10-16T07:41:45;14.05;;;9.90;;
22606;SDS011;11470;20.968;105.834;2022-10-16T07:46:50;16.70;;;11.10;;
22606;SDS011;11470;20.968;105.834;2022-10-16T07:57:01;10.65;;;7.03;;
22606;SDS011;11470;20.968;105.834;2022-10-16T08:02:06;24.55;;;12.75;;
22606;SDS011;11470;20.968;105.834;2022-10-16T08:07:13;19.02;;;11.18;;
22606;SDS011;11470;20.968;105.834;2022-10-16T08:12:18;21.90;;;13.23;;
22606;SDS011;11470;20.968;105.834;2022-10-16T08:17:23;19.80;;;13.02;;
22606;SDS011;11470;20.968;105.834;2022-10-16T08:22:29;21.40;;;13.32;;
22606;SDS011;11470;20.968;105.834;2022-10-16T08:27:35;24.90;;;15.40;;
22606;SDS011;11470;20.968;105.834;2022-10-16T08:32:40;20.15;;;13.48;;
22606;SDS011;11470;20.968;105.834;2022-10-16T08:37:46;14.73;;;8.98;;
22606;SDS011;11470;20.968;105.834;2022-10-16T08:48:25;16.13;;;7.45;;
22606;SDS011;11470;20.968;105.834;2022-10-16T08:53:36;22.70;;;14.10;;
22606;SDS011;11470;20.968;105.834;2022-10-16T08:58:44;20.25;;;13.52;;
22606;SDS011;11470;20.968;105.834;2022-10-16T09:03:56;19.20;;;13.35;;
22606;SDS011;11470;20.968;105.834;2022-10-16T09:19:34;17.52;;;12.73;;
22606;SDS011;11470;20.968;105.834;2022-10-16T09:24:41;18.77;;;14.02;;
22606;SDS011;11470;20.968;105.834;2022-10-16T09:29:46;22.17;;;13.45;;
22606;SDS011;11470;20.968;105.834;2022-10-16T09:34:52;19.80;;;12.98;;
22606;SDS011;11470;20.968;105.834;2022-10-16T09:40:00;20.20;;;13.55;;
22606;SDS011;11470;20.968;105.834;2022-10-16T09:45:19;18.73;;;11.38;;
22606;SDS011;11470;20.968;105.834;2022-10-16T09:50:26;21.30;;;12.70;;
22606;SDS011;11470;20.968;105.834;2022-10-16T09:55:32;25.80;;;15.23;;
22606;SDS011;11470;20.968;105.834;2022-10-16T10:00:39;15.98;;;8.80;;
22606;SDS011;11470;20.968;105.834;2022-10-16T10:05:47;27.00;;;16.85;;
22606;SDS011;11470;20.968;105.834;2022-10-16T10:10:59;14.68;;;8.10;;
22606;SDS011;11470;20.968;105.834;2022-10-16T10:16:04;20.02;;;11.93;;
22606;SDS011;11470;20.968;105.834;2022-10-16T10:21:13;18.08;;;11.77;;
22606;SDS011;11470;20.968;105.834;2022-10-16T10:26:20;21.48;;;12.68;;
22606;SDS011;11470;20.968;105.834;2022-10-16T10:36:38;24.15;;;13.98;;
22606;SDS011;11470;20.968;105.834;2022-10-16T10:41:51;24.42;;;13.73;;
22606;SDS011;11470;20.968;105.834;2022-10-16T10:47:04;17.20;;;9.63;;
22606;SDS011;11470;20.968;105.834;2022-10-16T11:02:26;17.17;;;9.35;;
22606;SDS011;11470;20.968;105.834;2022-10-16T11:07:43;38.25;;;20.13;;
22606;SDS011;11470;20.968;105.834;2022-10-16T11:13:04;43.55;;;26.80;;
22606;SDS011;11470;20.968;105.834;2022-10-16T11:18:21;35.55;;;17.55;;
22606;SDS011;11470;20.968;105.834;2022-10-16T11:23:31;33.75;;;21.17;;
22606;SDS011;11470;20.968;105.834;2022-10-16T11:28:50;39.17;;;22.40;;
22606;SDS011;11470;20.968;105.834;2022-10-16T11:39:31;25.73;;;14.15;;
22606;SDS011;11470;20.968;105.834;2022-10-16T11:44:55;25.47;;;13.77;;
22606;SDS011;11470;20.968;105.834;2022-10-16T11:55:27;32.80;;;15.25;;
22606;SDS011;11470;20.968;105.834;2022-10-16T12:11:20;37.92;;;20.88;;
22606;SDS011;11470;20.968;105.834;2022-10-16T12:16:28;33.08;;;16.15;;
22606;SDS011;11470;20.968;105.834;2022-10-16T12:21:34;38.65;;;18.80;;
22606;SDS011;11470;20.968;105.834;2022-10-16T12:26:39;60.42;;;34.80;;
22606;SDS011;11470;20.968;105.834;2022-10-16T12:31:58;71.10;;;39.58;;
22606;SDS011;11470;20.968;105.834;2022-10-16T12:37:11;54.22;;;30.35;;
22606;SDS011;11470;20.968;105.834;2022-10-16T12:52:38;49.40;;;31.27;;
22606;SDS011;11470;20.968;105.834;2022-10-16T12:57:52;67.50;;;37.97;;
22606;SDS011;11470;20.968;105.834;2022-10-16T13:24:02;66.38;;;38.78;;
22606;SDS011;11470;20.968;105.834;2022-10-16T13:29:13;66.05;;;41.10;;
22606;SDS011;11470;20.968;105.834;2022-10-16T13:34:19;70.57;;;39.42;;
22606;SDS011;11470;20.968;105.834;2022-10-16T13:39:28;81.45;;;42.47;;
22606;SDS011;11470;20.968;105.834;2022-10-16T13:44:41;64.45;;;38.03;;
22606;SDS011;11470;20.968;105.834;2022-10-16T13:50:06;60.92;;;35.30;;
22606;SDS011;11470;20.968;105.834;2022-10-16T13:55:15;63.78;;;40.95;;
22606;SDS011;11470;20.968;105.834;2022-10-16T14:00:25;68.38;;;38.63;;
22606;SDS011;11470;20.968;105.834;2022-10-16T14:05:34;71.15;;;38.60;;
22606;SDS011;11470;20.968;105.834;2022-10-16T14:10:50;61.20;;;38.38;;
22606;SDS011;11470;20.968;105.834;2022-10-16T14:16:05;60.23;;;37.13;;
22606;SDS011;11470;20.968;105.834;2022-10-16T14:21:12;61.65;;;34.13;;
22606;SDS011;11470;20.968;105.834;2022-10-16T14:26:20;58.25;;;34.38;;
22606;SDS011;11470;20.968;105.834;2022-10-16T14:31:30;59.78;;;37.35;;
22606;SDS011;11470;20.968;105.834;2022-10-16T14:36:53;54.00;;;29.88;;
22606;SDS011;11470;20.968;105.834;2022-10-16T14:41:59;64.88;;;38.42;;
22606;SDS011;11470;20.968;105.834;2022-10-16T14:47:12;67.10;;;38.25;;
22606;SDS011;11470;20.968;105.834;2022-10-16T14:52:19;53.90;;;31.50;;
22606;SDS011;11470;20.968;105.834;2022-10-16T14:57:32;65.57;;;37.88;;
22606;SDS011;11470;20.968;105.834;2022-10-16T15:02:40;71.68;;;40.35;;
22606;SDS011;11470;20.968;105.834;2022-10-16T15:07:45;72.50;;;41.25;;
22606;SDS011;11470;20.968;105.834;2022-10-16T15:12:51;66.03;;;39.72;;
22606;SDS011;11470;20.968;105.834;2022-10-16T15:17:59;64.80;;;38.60;;
22606;SDS011;11470;20.968;105.834;2022-10-16T15:23:13;69.97;;;40.08;;
22606;SDS011;11470;20.968;105.834;2022-10-16T15:28:19;63.83;;;38.45;;
22606;SDS011;11470;20.968;105.834;2022-10-16T15:33:25;67.43;;;37.28;;
22606;SDS011;11470;20.968;105.834;2022-10-16T15:38:41;69.32;;;38.22;;
22606;SDS011;11470;20.968;105.834;2022-10-16T15:43:59;70.13;;;41.72;;
22606;SDS011;11470;20.968;105.834;2022-10-16T15:49:04;67.47;;;40.42;;
22606;SDS011;11470;20.968;105.834;2022-10-16T15:54:14;71.80;;;40.35;;
22606;SDS011;11470;20.968;105.834;2022-10-16T15:59:19;70.75;;;40.60;;
22606;SDS011;11470;20.968;105.834;2022-10-16T16:04:24;63.35;;;37.45;;
22606;SDS011;11470;20.968;105.834;2022-10-16T16:09:46;65.53;;;40.28;;
22606;SDS011;11470;20.968;105.834;2022-10-16T16:14:53;62.72;;;36.20;;
22606;SDS011;11470;20.968;105.834;2022-10-16T16:20:01;59.42;;;34.65;;
22606;SDS011;11470;20.968;105.834;2022-10-16T16:25:08;51.00;;;28.38;;
22606;SDS011;11470;20.968;105.834;2022-10-16T16:35:21;60.40;;;29.33;;
22606;SDS011;11470;20.968;105.834;2022-10-16T16:40:26;54.95;;;32.17;;
22606;SDS011;11470;20.968;105.834;2022-10-16T16:45:34;49.67;;;27.07;;
22606;SDS011;11470;20.968;105.834;2022-10-16T16:50:39;37.25;;;22.25;;
22606;SDS011;11470;20.968;105.834;2022-10-16T16:55:45;30.70;;;16.03;;
22606;SDS011;11470;20.968;105.834;2022-10-16T17:00:50;35.40;;;18.50;;
22606;SDS011;11470;20.968;105.834;2022-10-16T17:06:05;31.25;;;19.63;;
22606;SDS011;11470;20.968;105.834;2022-10-16T17:11:14;30.58;;;15.30;;
22606;SDS011;11470;20.968;105.834;2022-10-16T17:16:21;28.45;;;15.43;;
22606;SDS011;11470;20.968;105.834;2022-10-16T17:21:26;30.27;;;14.25;;
22606;SDS011;11470;20.968;105.834;2022-10-16T17:26:33;31.65;;;19.35;;
22606;SDS011;11470;20.968;105.834;2022-10-16T17:31:41;28.58;;;14.38;;
22606;SDS011;11470;20.968;105.834;2022-10-16T17:36:46;21.52;;;13.82;;
22606;SDS011;11470;20.968;105.834;2022-10-16T17:41:51;32.05;;;19.48;;
22606;SDS011;11470;20.968;105.834;2022-10-16T17:46:58;25.85;;;13.48;;
22606;SDS011;11470;20.968;105.834;2022-10-16T17:52:07;19.75;;;11.15;;
22606;SDS011;11470;20.968;105.834;2022-10-16T17:57:13;29.30;;;17.03;;
22606;SDS011;11470;20.968;105.834;2022-10-16T18:02:18;31.15;;;14.95;;
22606;SDS011;11470;20.968;105.834;2022-10-16T18:07:23;24.05;;;12.05;;
22606;SDS011;11470;20.968;105.834;2022-10-16T18:12:31;20.52;;;11.73;;
22606;SDS011;11470;20.968;105.834;2022-10-16T18:17:37;23.70;;;13.15;;
22606;SDS011;11470;20.968;105.834;2022-10-16T18:22:42;19.23;;;11.80;;
22606;SDS011;11470;20.968;105.834;2022-10-16T18:27:51;18.02;;;11.98;;
22606;SDS011;11470;20.968;105.834;2022-10-16T18:32:56;11.57;;;6.05;;
22606;SDS011;11470;20.968;105.834;2022-10-16T18:38:02;20.25;;;12.32;;
22606;SDS011;11470;20.968;105.834;2022-10-16T18:43:10;15.77;;;8.73;;
22606;SDS011;11470;20.968;105.834;2022-10-16T18:48:16;14.77;;;9.95;;
22606;SDS011;11470;20.968;105.834;2022-10-16T18:53:21;16.90;;;9.00;;
22606;SDS011;11470;20.968;105.834;2022-10-16T18:58:26;15.53;;;8.33;;
22606;SDS011;11470;20.968;105.834;2022-10-16T19:03:32;18.30;;;10.00;;
22606;SDS011;11470;20.968;105.834;2022-10-16T19:08:46;15.75;;;8.13;;
22606;SDS011;11470;20.968;105.834;2022-10-16T19:13:55;10.50;;;6.75;;
22606;SDS011;11470;20.968;105.834;2022-10-16T19:19:02;22.73;;;14.25;;
22606;SDS011;11470;20.968;105.834;2022-10-16T19:24:07;17.48;;;9.38;;
22606;SDS011;11470;20.968;105.834;2022-10-16T19:29:15;20.20;;;12.05;;
22606;SDS011;11470;20.968;105.834;2022-10-16T19:34:20;12.80;;;7.97;;
22606;SDS011;11470;20.968;105.834;2022-10-16T19:39:25;17.50;;;9.73;;
22606;SDS011;11470;20.968;105.834;2022-10-16T19:44:31;17.30;;;10.80;;
22606;SDS011;11470;20.968;105.834;2022-10-16T19:49:36;16.20;;;8.00;;
22606;SDS011;11470;20.968;105.834;2022-10-16T19:54:41;14.97;;;8.73;;
22606;SDS011;11470;20.968;105.834;2022-10-16T19:59:49;15.20;;;8.20;;
22606;SDS011;11470;20.968;105.834;2022-10-16T20:04:55;22.48;;;12.45;;
22606;SDS011;11470;20.968;105.834;2022-10-16T20:10:00;17.13;;;8.73;;
22606;SDS011;11470;20.968;105.834;2022-10-16T20:15:05;17.80;;;11.00;;
22606;SDS011;11470;20.968;105.834;2022-10-16T20:20:11;15.40;;;7.60;;
22606;SDS011;11470;20.968;105.834;2022-10-16T20:25:16;20.40;;;12.65;;
22606;SDS011;11470;20.968;105.834;2022-10-16T20:30:22;18.85;;;8.95;;
22606;SDS011;11470;20.968;105.834;2022-10-16T20:35:27;16.00;;;8.80;;
22606;SDS011;11470;20.968;105.834;2022-10-16T20:40:33;19.55;;;11.60;;
22606;SDS011;11470;20.968;105.834;2022-10-16T20:45:39;22.65;;;12.75;;
22606;SDS011;11470;20.968;105.834;2022-10-16T20:50:45;17.92;;;11.18;;
22606;SDS011;11470;20.968;105.834;2022-10-16T20:55:50;18.37;;;12.10;;
22606;SDS011;11470;20.968;105.834;2022-10-16T21:01:02;17.98;;;10.82;;
22606;SDS011;11470;20.968;105.834;2022-10-16T21:06:11;22.50;;;13.87;;
22606;SDS011;11470;20.968;105.834;2022-10-16T21:11:20;17.03;;;10.57;;
22606;SDS011;11470;20.968;105.834;2022-10-16T21:16:26;22.15;;;14.23;;
22606;SDS011;11470;20.968;105.834;2022-10-16T21:26:37;25.88;;;16.35;;
22606;SDS011;11470;20.968;105.834;2022-10-16T21:31:42;19.13;;;10.30;;
22606;SDS011;11470;20.968;105.834;2022-10-16T21:36:47;18.07;;;9.80;;
22606;SDS011;11470;20.968;105.834;2022-10-16T21:41:53;17.00;;;10.90;;
22606;SDS011;11470;20.968;105.834;2022-10-16T21:46:58;21.07;;;14.40;;
22606;SDS011;11470;20.968;105.834;2022-10-16T21:52:03;18.60;;;10.37;;
22606;SDS011;11470;20.968;105.834;2022-10-16T21:57:08;22.37;;;10.77;;
22606;SDS011;11470;20.968;105.834;2022-10-16T22:02:13;22.35;;;12.98;;
22606;SDS011;11470;20.968;105.834;2022-10-16T22:07:19;23.90;;;17.05;;
22606;SDS011;11470;20.968;105.834;2022-10-16T22:12:24;22.17;;;14.17;;
22606;SDS011;11470;20.968;105.834;2022-10-16T22:17:29;25.80;;;11.13;;
22606;SDS011;11470;20.968;105.834;2022-10-16T22:22:35;16.65;;;9.60;;
22606;SDS011;11470;20.968;105.834;2022-10-16T22:27:40;19.67;;;9.50;;
22606;SDS011;11470;20.968;105.834;2022-10-16T22:32:45;19.35;;;11.45;;
22606;SDS011;11470;20.968;105.834;2022-10-16T22:37:51;19.85;;;12.25;;
22606;SDS011;11470;20.968;105.834;2022-10-16T22:42:56;19.23;;;9.80;;
22606;SDS011;11470;20.968;105.834;2022-10-16T22:48:02;15.77;;;9.03;;
22606;SDS011;11470;20.968;105.834;2022-10-16T22:53:08;15.73;;;8.75;;
22606;SDS011;11470;20.968;105.834;2022-10-16T22:58:14;16.27;;;9.00;;
22606;SDS011;11470;20.968;105.834;2022-10-16T23:03:19;18.13;;;11.02;;
22606;SDS011;11470;20.968;105.834;2022-10-16T23:08:25;22.30;;;11.13;;
22606;SDS011;11470;20.968;105.834;2022-10-16T23:13:47;22.30;;;10.07;;
22606;SDS011;11470;20.968;105.834;2022-10-16T23:18:53;22.77;;;11.80;;
22606;SDS011;11470;20.968;105.834;2022-10-16T23:23:58;26.38;;;13.23;;
22606;SDS011;11470;20.968;105.834;2022-10-16T23:29:04;22.98;;;10.63;;
22606;SDS011;11470;20.968;105.834;2022-10-16T23:39:15;19.50;;;11.63;;
22606;SDS011;11470;20.968;105.834;2022-10-16T23:44:36;24.13;;;11.68;;
22606;SDS011;11470;20.968;105.834;2022-10-16T23:49:50;17.80;;;8.35;;
